createdAt,value
2023-02-11T00:01:39.896Z,1028.4513250533869
2023-02-11T00:06:37.146Z,1028.3080948250158
2023-02-11T00:11:33.392Z,1028.2925740989683
2023-02-11T00:16:29.744Z,1028.2100377651975
2023-02-11T00:21:26.886Z,1028.1543984306784
2023-02-11T00:26:25.136Z,1028.2308887296101
2023-02-11T00:31:25.561Z,1028.3246803556415
2023-02-11T00:36:22.710Z,1028.3399949826537
2023-02-11T00:41:18.943Z,1028.225148827572
2023-02-11T00:46:15.241Z,1028.2716609926606
2023-02-11T00:51:11.427Z,1028.1545324660008
2023-02-11T00:56:07.853Z,1028.2263543838003
2023-02-11T01:01:05.029Z,1028.109053220343
2023-02-11T01:06:01.245Z,1028.0640487588994
2023-02-11T01:10:58.493Z,1028.04085019941
2023-02-11T01:15:54.813Z,1027.9126625749348
2023-02-11T01:20:51.985Z,1027.8566871706576
2023-02-11T01:25:48.532Z,1027.778126208599
2023-02-11T01:30:45.606Z,1027.7676598459334
2023-02-11T01:35:41.800Z,1027.7585846197167
2023-02-11T01:46:00.287Z,1027.664465235529
2023-02-11T01:50:59.479Z,1027.6550501198344
2023-02-11T01:55:56.787Z,1027.6420465276422
2023-02-11T02:00:54.986Z,1027.5967315074436
2023-02-11T02:05:57.252Z,1027.5787710022878
2023-02-11T02:10:55.460Z,1027.4926307049388
2023-02-11T02:15:53.956Z,1027.5599381978848
2023-02-11T02:21:04.946Z,1027.4739347618458
2023-02-11T02:26:18.209Z,1027.4436505269778
2023-02-11T02:31:28.430Z,1027.4286558639858
2023-02-11T02:36:31.617Z,1027.212922838836
2023-02-11T02:41:31.897Z,1027.258103839795
2023-02-11T02:46:34.208Z,1027.1261832626524
2023-02-11T02:51:41.360Z,1027.0833086076773
2023-02-11T02:56:44.602Z,1027.094668922499
2023-02-11T03:01:49.826Z,1027.0776896959956
2023-02-11T03:06:55.080Z,1027.053593146827
2023-02-11T03:11:52.347Z,1027.071833892803
2023-02-11T03:16:51.589Z,1027.0722086981043
2023-02-11T03:21:48.867Z,1027.0390555471604
2023-02-11T03:26:50.063Z,1027.0423219089369
2023-02-11T03:31:53.544Z,1026.971236572046
2023-02-11T03:36:54.611Z,1027.0339202031294
2023-02-11T03:41:54.883Z,1026.9827962484253
2023-02-11T03:46:54.113Z,1027.0471167538747
2023-02-11T03:51:53.318Z,1026.9727608528974
2023-02-11T03:56:52.579Z,1026.9436886271155
2023-02-11T04:01:48.885Z,1026.9011829119386
2023-02-11T04:06:45.145Z,1026.8311161842703
2023-02-11T04:11:41.341Z,1026.719329087708
2023-02-11T04:16:37.748Z,1026.784381874249
2023-02-11T04:21:33.865Z,1026.7687981284405
2023-02-11T04:26:30.119Z,1026.7537926525472
2023-02-11T04:31:26.577Z,1026.6766011778914
2023-02-11T04:36:22.643Z,1026.68322544091
2023-02-11T04:41:18.940Z,1026.6683583944057
2023-02-11T04:46:15.239Z,1026.6417077785761
2023-02-11T04:51:11.455Z,1026.6913924762912
2023-02-11T04:56:07.706Z,1026.6973504416414
2023-02-11T05:01:06.007Z,1026.6641668641016
2023-02-11T05:06:02.210Z,1026.6477122582198
2023-02-11T05:10:58.550Z,1026.6350392175927
2023-02-11T05:15:54.718Z,1026.6404843741047
2023-02-11T05:20:51.021Z,1026.5680265463495
2023-02-11T05:25:47.264Z,1026.6018315187544
2023-02-11T05:30:43.566Z,1026.5074106075067
2023-02-11T05:35:39.790Z,1026.5100479120977
2023-02-11T05:40:37.042Z,1026.4841384913466
2023-02-11T05:45:33.218Z,1026.4432695583707
2023-02-11T05:50:29.596Z,1026.4422943903853
2023-02-11T05:55:25.803Z,1026.3584258215
2023-02-11T06:00:22.033Z,1026.3968689151618
2023-02-11T08:01:47.919Z,1026.4788188175983
2023-02-11T08:06:46.248Z,1026.4338983169948
2023-02-11T08:11:44.351Z,1026.4189591859179
2023-02-11T08:16:40.639Z,1026.2789284468774
2023-02-11T08:21:36.844Z,1026.254396379632
2023-02-11T08:26:33.102Z,1026.2205380351593
2023-02-11T08:31:32.496Z,1026.1904652169549
2023-02-11T08:36:28.619Z,1026.142180482754
2023-02-11T08:41:24.854Z,1026.084344215196
2023-02-11T08:46:21.161Z,1026.0446484995355
2023-02-11T08:51:18.414Z,1026.043858736167
2023-02-11T08:56:19.643Z,1026.0410236880293
2023-02-11T09:01:16.958Z,1026.0199388688704
2023-02-11T09:06:13.168Z,1026.042983392543
2023-02-11T09:11:09.408Z,1026.0674237931796
2023-02-11T09:16:05.675Z,1026.0105306522191
2023-02-11T09:21:02.008Z,1025.9732353183358
2023-02-11T09:25:58.224Z,1025.890136609435
2023-02-11T09:30:54.998Z,1025.9269157813885
2023-02-11T09:35:51.744Z,1025.8798614720681
2023-02-11T09:40:48.086Z,1025.8143456334683
2023-02-11T09:45:47.249Z,1025.8583340774724
2023-02-11T09:50:46.513Z,1025.919764420294
2023-02-11T09:55:51.709Z,1025.9263660715521
2023-02-11T10:00:53.965Z,1025.7306611013635
2023-02-11T10:06:05.205Z,1025.6837801261559
2023-02-11T10:11:26.056Z,1025.5824461320035
2023-02-11T10:16:24.614Z,1025.5200843624996
2023-02-11T10:26:33.111Z,1025.3827717824709
2023-02-11T10:31:35.670Z,1025.2383572182691
2023-02-11T10:36:33.632Z,1025.2747170462533
2023-02-11T10:41:32.906Z,1025.1512145511456
2023-02-11T10:46:32.253Z,1025.0127353507269
2023-02-11T10:51:33.368Z,1024.9778069960669
2023-02-11T10:56:30.632Z,1024.9259397682954
2023-02-11T11:01:37.900Z,1024.8791777318297
2023-02-11T11:06:35.162Z,1024.8027019631556
2023-02-11T11:11:39.356Z,1024.6346239791937
2023-02-11T11:16:45.560Z,1024.6206293638686
2023-02-11T11:21:45.869Z,1024.435231115792
2023-02-11T11:26:46.097Z,1024.3143892095104
2023-02-11T11:31:47.396Z,1024.3343763182054
2023-02-11T11:36:45.566Z,1024.195804770018
2023-02-11T11:41:50.848Z,1024.2004439065379
2023-02-11T11:46:56.133Z,1024.3220886604388
2023-02-11T11:51:56.334Z,1024.167033655152
2023-02-11T11:56:57.548Z,1024.1408013982684
2023-02-11T12:02:08.846Z,1024.1275561781704
2023-02-11T12:07:16.017Z,1023.9620859845246
2023-02-11T12:12:25.281Z,1024.1113125352426
2023-02-11T12:17:32.501Z,1023.963966193792
2023-02-11T12:22:40.754Z,1023.8554305435823
2023-02-11T12:27:42.933Z,1023.7040954037385
2023-02-11T12:32:51.229Z,1023.5598194694239
2023-02-11T12:38:03.371Z,1023.5164904349724
2023-02-11T12:43:08.661Z,1023.5390551827878
2023-02-11T12:48:16.869Z,1023.5454726466153
2023-02-11T12:53:36.042Z,1023.4111626585768
2023-02-11T12:58:44.532Z,1023.3216308831848
2023-02-11T13:03:44.532Z,1023.2745902835882
2023-02-11T13:08:45.796Z,1023.2146314046096
2023-02-11T13:13:52.097Z,1023.1655143209206
2023-02-11T13:18:59.278Z,1023.2127245949275
2023-02-11T13:24:01.517Z,1023.2061394413139
2023-02-11T13:29:06.770Z,1023.1259387589936
2023-02-11T13:34:08.977Z,1022.9280233914731
2023-02-11T13:39:06.250Z,1022.9659362888444
2023-02-11T13:44:05.502Z,1022.7554373914909
2023-02-11T13:49:02.769Z,1022.7712146595813
2023-02-11T13:53:58.005Z,1022.6954386829872
2023-02-11T13:59:04.276Z,1022.6953376311413
2023-02-11T14:04:10.496Z,1022.6110307330628
2023-02-11T14:09:14.736Z,1022.5551634375249
2023-02-11T14:14:18.982Z,1022.4014682994597
2023-02-11T14:19:29.222Z,1022.346187468688
2023-02-11T14:24:35.468Z,1022.330381358954
2023-02-11T14:29:37.719Z,1022.2660308901344
2023-02-11T14:34:43.934Z,1022.2592489450521
2023-02-11T14:39:53.128Z,1022.1849198280988
2023-02-11T14:44:52.426Z,1022.2007944527253
2023-02-11T14:49:52.605Z,1022.1326462218166
2023-02-11T14:54:50.873Z,1022.103095646593
2023-02-11T14:59:53.182Z,1022.1165566133739
2023-02-11T15:05:01.376Z,1022.2318202408952
2023-02-11T15:10:02.634Z,1022.2075450863887
2023-02-11T15:14:59.899Z,1022.2110956380561
2023-02-11T15:20:00.152Z,1022.216416714368
2023-02-11T15:24:59.352Z,1022.2353096560703
2023-02-11T15:29:56.670Z,1022.2770550983654
2023-02-11T15:34:53.892Z,1022.0773270956404
2023-02-11T15:39:52.147Z,1022.0659481264521
2023-02-11T15:45:07.521Z,1022.0405216655331
2023-02-11T15:50:03.642Z,1022.1042252554533
2023-02-11T15:55:01.885Z,1022.2078130536784
2023-02-11T15:59:59.144Z,1022.1811338446968
2023-02-11T16:04:57.461Z,1022.1375020068491
2023-02-11T16:09:57.614Z,1022.0020629770718
2023-02-11T16:14:54.890Z,1022.0763486458465
2023-02-11T16:19:53.140Z,1022.0702726163782
2023-02-11T16:24:58.389Z,1022.0614061158761
2023-02-11T16:29:56.701Z,1022.243600334772
2023-02-11T16:35:04.868Z,1022.1320521631301
2023-02-11T16:40:01.105Z,1022.0912888102418
2023-02-11T16:44:57.419Z,1022.0698303487403
2023-02-11T16:49:55.639Z,1022.0572988480162
2023-02-11T16:54:55.881Z,1021.9610294023119
2023-02-11T16:59:52.201Z,1021.8328768636992
2023-02-11T17:04:54.483Z,1021.8585788248702
2023-02-11T17:09:51.659Z,1021.7687395314831
2023-02-11T17:14:47.914Z,1021.8264519526164
2023-02-11T17:19:45.141Z,1021.7740644735554
2023-02-11T17:24:41.422Z,1021.7402287969823
2023-02-11T17:29:38.698Z,1021.6700171813093
2023-02-11T17:34:33.913Z,1021.6334938759778
2023-02-11T17:39:30.211Z,1021.5372951478173
2023-02-11T17:44:29.479Z,1021.4673546629202
2023-02-11T17:49:25.763Z,1021.4916338479178
2023-02-11T17:54:21.956Z,1021.4908202892157
2023-02-11T17:59:18.233Z,1021.4168243132028
2023-02-11T18:04:15.738Z,1021.3488453453633
2023-02-11T18:09:11.754Z,1021.2799634798494
2023-02-11T18:14:07.600Z,1021.3774375427746
2023-02-11T18:19:05.267Z,1021.3078513366361
2023-02-11T18:24:06.437Z,1021.2958825868106
2023-02-11T18:29:01.763Z,1021.3950268720241
2023-02-11T18:33:58.050Z,1021.2677908323114
2023-02-11T18:38:53.292Z,1021.4068738782147
2023-02-11T18:43:49.570Z,1021.2969088015204
2023-02-11T18:48:45.810Z,1021.3438105055051
2023-02-11T18:53:42.108Z,1021.2943530686972
2023-02-11T18:58:42.375Z,1021.2721127047262
2023-02-11T19:03:38.574Z,1021.2730988008632
2023-02-11T19:08:34.839Z,1021.2890699923801
2023-02-11T19:13:31.155Z,1021.2325147163854
2023-02-11T19:18:31.336Z,1021.2551646043332
2023-02-11T19:23:27.656Z,1021.2145407654848
2023-02-11T19:28:23.942Z,1021.1791793570721
2023-02-11T19:33:20.158Z,1021.1321439817395
2023-02-11T19:38:16.410Z,1021.0121429469281
2023-02-11T19:43:12.641Z,1020.9916346279646
2023-02-11T19:48:12.881Z,1021.0142823715106
2023-02-11T19:53:09.160Z,1021.0313355930514
2023-02-11T19:58:05.411Z,1020.9695767708796
2023-02-11T20:03:01.783Z,1021.053361277111
2023-02-11T20:07:57.003Z,1021.0769261383089
2023-02-11T20:12:53.215Z,1020.9937905243427
2023-02-11T20:17:49.483Z,1020.9906078425519
2023-02-11T20:22:45.692Z,1020.8103194298925
2023-02-11T20:27:42.018Z,1020.8485285058158
2023-02-11T20:32:38.237Z,1020.7116378965708
2023-02-11T20:37:34.495Z,1020.5720474329863
2023-02-11T20:42:30.780Z,1020.6127458227113
2023-02-11T20:47:27.012Z,1020.6426172558498
2023-02-11T20:52:23.287Z,1020.458770878168
2023-02-11T20:57:18.549Z,1020.3899280104505
2023-02-11T21:02:19.189Z,1020.4647297854084
2023-02-11T21:07:15.023Z,1020.4019845468539
2023-02-11T21:12:10.347Z,1020.4488557196469
2023-02-11T21:17:06.543Z,1020.2838307712309
2023-02-11T21:22:02.810Z,1020.2503541118906
2023-02-11T21:26:59.098Z,1020.2458579234554
2023-02-11T21:31:56.538Z,1020.2311876600261
2023-02-11T21:36:52.621Z,1020.2141504420523
2023-02-11T21:41:48.912Z,1020.1635476407769
2023-02-11T21:46:46.201Z,1020.1889733482305
2023-02-11T21:51:44.364Z,1020.1585734968886
2023-02-11T21:56:41.623Z,1020.154258029669
2023-02-11T22:01:44.901Z,1020.1346747079438
2023-02-11T22:06:42.141Z,1020.1386767477452
2023-02-11T22:11:39.419Z,1020.14064120283
2023-02-11T22:16:36.783Z,1020.1464797447088
2023-02-11T22:21:32.974Z,1020.1146075935605
2023-02-11T22:26:29.200Z,1020.0874167784013
2023-02-11T22:31:27.542Z,1020.0276384398152
2023-02-11T22:36:32.672Z,1020.0013696153828
2023-02-11T22:41:28.880Z,1019.9487444763346
2023-02-11T22:46:25.142Z,1020.0590725655132
2023-02-11T22:51:22.449Z,1019.8883370603015
2023-02-11T22:56:18.677Z,1019.7868889744565
2023-02-11T23:01:14.977Z,1019.8746675738723
2023-02-11T23:06:12.235Z,1019.8473299619654
2023-02-11T23:11:10.465Z,1019.8788166842708
2023-02-11T23:16:11.781Z,1019.8229133333866
2023-02-11T23:21:11.365Z,1019.7682615616038
2023-02-11T23:26:13.231Z,1019.7207694113073
2023-02-11T23:31:13.568Z,1019.6992817946467
2023-02-11T23:36:09.719Z,1019.5260701194263
2023-02-11T23:41:05.970Z,1019.5246760465461
2023-02-11T23:46:02.270Z,1019.5160374792162
2023-02-11T23:50:58.513Z,1019.3741210394885
2023-02-11T23:55:56.105Z,1019.4007363211716
